createdAt,value
2017-02-18T00:00:17.493Z,70.72
2017-02-18T00:02:40.840Z,69.85
2017-02-18T00:05:06.171Z,71.15
2017-02-18T00:07:16.846Z,71.34
2017-02-18T00:09:41.155Z,71.06
2017-02-18T00:12:04.574Z,70.33
2017-02-18T00:14:28.323Z,70.14
2017-02-18T00:16:52.403Z,69.48
2017-02-18T00:19:16.115Z,69.76
2017-02-18T00:21:40.442Z,69.48
2017-02-18T00:24:04.547Z,69.67
2017-02-18T00:26:34.289Z,71.09
2017-02-18T00:28:57.987Z,71.28
2017-02-18T00:31:21.576Z,71.44
2017-02-18T00:33:45.530Z,72.01
2017-02-18T00:36:09.611Z,72.11
2017-02-18T00:38:33.199Z,71.82
2017-02-18T00:40:56.729Z,72.01
2017-02-18T00:43:22.164Z,71.63
2017-02-18T00:45:46.830Z,71.15
2017-02-18T00:48:10.386Z,71.44
2017-02-18T00:50:34.141Z,72.01
2017-02-18T00:52:57.896Z,72.2
2017-02-18T00:55:22.048Z,73.06
2017-02-18T00:57:44.832Z,73.34
2017-02-18T01:00:08.356Z,73.88
2017-02-18T01:02:31.587Z,73.88
2017-02-18T01:04:55.336Z,73.78
2017-02-18T01:07:19.373Z,73.06
2017-02-18T01:09:43.769Z,72.96
2017-02-18T01:12:08.075Z,73.34
2017-02-18T01:14:32.490Z,72.11
2017-02-18T01:16:56.659Z,71.34
2017-02-18T01:19:21.202Z,70.39
2017-02-18T01:21:44.759Z,70.39
2017-02-18T01:24:08.232Z,70.1
2017-02-18T01:26:32.789Z,70.2
2017-02-18T01:28:56.542Z,70.2
2017-02-18T01:31:19.831Z,71.25
2017-02-18T01:33:45.359Z,69.92
2017-02-18T01:36:09.739Z,70.2
2017-02-18T01:38:33.534Z,69.82
2017-02-18T01:40:49.895Z,69.54
2017-02-18T01:43:13.127Z,69.19
2017-02-18T01:45:36.525Z,69.1
2017-02-18T01:47:59.879Z,69.19
2017-02-18T01:50:23.188Z,69.1
2017-02-18T01:52:46.700Z,69.15
2017-02-18T01:55:09.963Z,68.49
2017-02-18T01:57:12.037Z,68.49
2017-02-18T01:59:36.614Z,68.68
2017-02-18T02:02:00.841Z,68.68
2017-02-18T02:04:24.555Z,69.44
2017-02-18T02:06:49.100Z,69.44
2017-02-18T02:09:12.531Z,69.35
2017-02-18T02:11:36.060Z,69.25
2017-02-18T02:14:00.502Z,69.15
2017-02-18T02:16:23.702Z,70.01
2017-02-18T02:18:47.903Z,70.2
2017-02-18T02:21:11.128Z,69.25
2017-02-18T02:23:34.532Z,70.01
2017-02-18T02:25:36.380Z,70.87
2017-02-18T02:28:00.101Z,70.77
2017-02-18T02:30:23.305Z,70.83
2017-02-18T02:32:46.540Z,71.41
2017-02-18T02:35:09.638Z,71.31
2017-02-18T02:37:33.972Z,71.59
2017-02-18T02:39:57.486Z,71.59
2017-02-18T02:42:21.922Z,71.12
2017-02-18T02:44:45.233Z,70.39
2017-02-18T02:48:44.695Z,69.63
2017-02-18T02:51:08.199Z,69.98
2017-02-18T02:53:32.459Z,69.88
2017-02-18T02:55:55.977Z,69.82
2017-02-18T02:58:19.830Z,70.17
2017-02-18T03:00:43.175Z,70.74
2017-02-18T03:03:07.282Z,71.02
2017-02-18T03:05:32.425Z,70.83
2017-02-18T03:07:56.081Z,71.5
2017-02-18T03:10:19.296Z,72.99
2017-02-18T03:12:42.516Z,72.07
2017-02-18T03:15:05.916Z,71.22
2017-02-18T03:17:30.265Z,70.17
2017-02-18T03:19:53.732Z,70.26
2017-02-18T03:22:19.275Z,70.83
2017-02-18T03:24:42.530Z,71.94
2017-02-18T03:27:05.870Z,71.22
2017-02-18T03:29:30.443Z,70.45
2017-02-18T03:31:54.453Z,70.26
2017-02-18T03:34:18.134Z,69.21
2017-02-18T03:36:41.765Z,69.31
2017-02-18T03:39:06.091Z,69.6
2017-02-18T03:41:29.335Z,71.27
2017-02-18T03:43:52.657Z,72.13
2017-02-18T03:46:18.271Z,72.6
2017-02-18T03:48:44.956Z,72.6
2017-02-18T03:51:10.228Z,73.08
2017-02-18T03:53:33.820Z,72.51
2017-02-18T03:55:50.659Z,72.6
2017-02-18T03:58:14.398Z,72.7
2017-02-18T04:00:37.677Z,74.27
2017-02-18T04:03:00.932Z,73.84
2017-02-18T04:05:11.068Z,73.27
2017-02-18T04:07:34.447Z,72.6
2017-02-18T04:09:58.760Z,71.37
2017-02-18T04:12:23.213Z,72.13
2017-02-18T04:14:47.425Z,72.89
2017-02-18T04:17:10.887Z,72.22
2017-02-18T04:19:34.483Z,72.32
2017-02-18T04:21:59.821Z,71.94
2017-02-18T04:24:23.038Z,71.37
2017-02-18T04:26:46.282Z,71.56
2017-02-18T04:29:10.125Z,71.46
2017-02-18T04:31:35.218Z,72.6
2017-02-18T04:33:58.660Z,73.42
2017-02-18T04:36:22.152Z,72.13
2017-02-18T04:38:45.403Z,72.22
2017-02-18T04:41:09.096Z,72.03
2017-02-18T04:43:32.237Z,71.94
2017-02-18T04:45:55.808Z,71.56
2017-02-18T04:48:19.120Z,71.46
2017-02-18T04:50:42.831Z,71.27
2017-02-18T04:53:06.328Z,71.08
2017-02-18T04:55:30.187Z,70.17
2017-02-18T04:57:45.760Z,69.41
2017-02-18T05:00:09.344Z,68.65
2017-02-18T05:02:32.507Z,68.65
2017-02-18T05:04:55.636Z,68.17
2017-02-18T05:07:19.882Z,67.88
2017-02-18T05:09:44.079Z,68.65
2017-02-18T05:12:07.523Z,68.99
2017-02-18T05:14:30.770Z,69.41
2017-02-18T05:16:54.302Z,69.66
2017-02-18T05:19:18.616Z,69.41
2017-02-18T05:21:41.961Z,68.84
2017-02-18T05:24:05.325Z,68.07
2017-02-18T05:26:28.848Z,67.35
2017-02-18T05:28:30.801Z,67.25
2017-02-18T05:30:55.308Z,66.11
2017-02-18T05:33:18.750Z,66.11
2017-02-18T05:35:42.004Z,65.73
2017-02-18T05:38:06.265Z,66.11
2017-02-18T05:40:29.863Z,66.78
2017-02-18T05:42:53.038Z,66.87
2017-02-18T05:45:17.727Z,67.16
2017-02-18T05:47:40.802Z,67.16
2017-02-18T05:50:03.984Z,66.49
2017-02-18T05:52:27.281Z,67.35
2017-02-18T05:54:50.839Z,66.87
2017-02-18T05:57:14.155Z,67.88
2017-02-18T05:59:38.257Z,68.17
2017-02-18T06:02:01.719Z,68.46
2017-02-18T06:04:26.588Z,68.55
2017-02-18T06:06:49.919Z,67.69
2017-02-18T06:09:13.414Z,68.01
2017-02-18T06:11:36.854Z,67.73
2017-02-18T06:14:00.296Z,67.44
2017-02-18T06:16:25.010Z,68.65
2017-02-18T06:18:48.499Z,67.54
2017-02-18T06:22:50.655Z,67.25
2017-02-18T06:25:06.315Z,66.68
2017-02-18T06:27:30.085Z,66.68
2017-02-18T06:29:54.446Z,67.32
2017-02-18T06:32:18.096Z,67.16
2017-02-18T06:34:41.511Z,67.35
2017-02-18T06:37:04.824Z,67.16
2017-02-18T06:39:30.277Z,66.78
2017-02-18T06:41:56.290Z,66.2
2017-02-18T06:44:11.292Z,66.11
2017-02-18T06:46:34.940Z,66.49
2017-02-18T06:48:58.311Z,66.2
2017-02-18T06:51:21.909Z,66.2
2017-02-18T06:53:45.319Z,65.73
2017-02-18T06:56:09.407Z,65.19
2017-02-18T06:58:32.977Z,65.1
2017-02-18T07:00:56.181Z,64.62
2017-02-18T07:03:19.737Z,64.43
2017-02-18T07:07:19.279Z,65.1
2017-02-18T07:09:43.976Z,64.43
2017-02-18T07:12:07.173Z,64.62
2017-02-18T07:14:31.461Z,64.43
2017-02-18T07:16:55.770Z,63.67
2017-02-18T07:19:19.972Z,63.76
2017-02-18T07:21:43.322Z,63.57
2017-02-18T07:24:08.216Z,63.32
2017-02-18T07:26:31.834Z,63.76
2017-02-18T07:28:55.443Z,63.39
2017-02-18T07:31:21.071Z,63.2
2017-02-18T07:33:45.436Z,63.51
2017-02-18T07:36:10.897Z,63.39
2017-02-18T07:38:36.271Z,62.91
2017-02-18T07:41:08.754Z,62.08
2017-02-18T07:43:32.568Z,63.29
2017-02-18T07:47:32.662Z,62.08
2017-02-18T07:51:32.617Z,61.32
2017-02-18T07:53:56.851Z,61.42
2017-02-18T07:56:27.543Z,61.9
2017-02-18T07:58:51.305Z,61.64
2017-02-18T08:01:16.659Z,61.54
2017-02-18T08:05:18.955Z,60.75
2017-02-18T08:07:44.648Z,60.97
2017-02-18T08:11:36.645Z,61.45
2017-02-18T08:24:53.537Z,63.51
2017-02-18T08:27:21.636Z,61.64
2017-02-18T08:29:52.356Z,61.25
2017-02-18T08:33:52.430Z,59.57
2017-02-18T08:37:52.721Z,60.14
2017-02-18T08:40:06.668Z,59.28
2017-02-18T08:44:07.341Z,60.88
2017-02-18T08:46:31.234Z,59.95
2017-02-18T08:49:10.774Z,61.16
2017-02-18T08:53:11.139Z,59
2017-02-18T08:57:11.371Z,60.21
2017-02-18T09:01:22.364Z,58.33
2017-02-18T09:05:22.478Z,57.86
2017-02-18T09:09:23.219Z,59.83
2017-02-18T09:11:47.339Z,58.24
2017-02-18T09:14:17.423Z,57.82
2017-02-18T09:18:17.684Z,57.95
2017-02-18T09:22:20.274Z,57.86
2017-02-18T09:26:07.311Z,59.26
2017-02-18T09:30:11.100Z,58.5
2017-02-18T09:32:42.851Z,60.59
2017-02-18T09:35:08.253Z,60.3
2017-02-18T09:37:31.487Z,59.92
2017-02-18T09:41:31.213Z,59.57
2017-02-18T09:43:47.906Z,57.6
2017-02-18T09:46:11.854Z,57.6
2017-02-18T09:48:35.842Z,56.65
2017-02-18T09:50:59.614Z,54.38
2017-02-18T09:53:23.276Z,56.07
2017-02-18T09:55:46.895Z,55.41
2017-02-18T09:58:10.340Z,53.72
2017-02-18T10:00:34.579Z,54.1
2017-02-18T10:02:59.140Z,53.53
2017-02-18T10:05:29.347Z,53.62
2017-02-18T10:07:53.955Z,54.36
2017-02-18T10:10:17.422Z,54.48
2017-02-18T10:12:40.814Z,53.62
2017-02-18T10:15:04.470Z,52.59
2017-02-18T10:17:29.894Z,52.48
2017-02-18T10:19:53.793Z,51.26
2017-02-18T10:22:08.777Z,50.78
2017-02-18T10:24:32.833Z,51.54
2017-02-18T10:26:57.173Z,50.88
2017-02-18T10:29:21.044Z,49.85
2017-02-18T10:31:46.712Z,51.81
2017-02-18T10:34:10.408Z,53.02
2017-02-18T10:36:26.903Z,53.97
2017-02-18T10:38:50.847Z,51.62
2017-02-18T10:41:14.656Z,51.62
2017-02-18T10:43:39.245Z,53.69
2017-02-18T10:46:02.522Z,51.81
2017-02-18T10:48:26.065Z,50.49
2017-02-18T10:50:49.744Z,50.02
2017-02-18T10:53:13.486Z,49.38
2017-02-18T10:55:37.151Z,49.66
2017-02-18T10:58:01.737Z,48.61
2017-02-18T11:00:25.581Z,48.54
2017-02-18T11:02:49.145Z,49.28
2017-02-18T11:06:48.876Z,47.3
2017-02-18T11:09:03.989Z,47.37
2017-02-18T11:11:27.509Z,49.76
2017-02-18T11:13:51.083Z,49.8
2017-02-18T11:16:14.550Z,49.18
2017-02-18T11:18:38.149Z,47.85
2017-02-18T11:21:01.621Z,47.56
2017-02-18T11:23:25.102Z,46.8
2017-02-18T11:25:48.614Z,46.53
2017-02-18T11:28:12.189Z,42.94
2017-02-18T11:30:35.684Z,43.14
2017-02-18T11:32:59.350Z,43.62
2017-02-18T11:35:22.846Z,42.73
2017-02-18T11:37:47.413Z,42.18
2017-02-18T11:40:13.678Z,42.16
2017-02-18T11:42:38.472Z,41.2
2017-02-18T11:45:05.999Z,43.86
2017-02-18T11:47:35.910Z,42.25
2017-02-18T11:50:04.823Z,41.97
2017-02-18T11:52:32.895Z,41.87
2017-02-18T11:54:57.302Z,40.17
2017-02-18T11:57:20.438Z,41.95
2017-02-18T11:59:24.087Z,44.05
2017-02-18T12:01:47.812Z,44.87
2017-02-18T19:21:11.102Z,47.68
2017-02-18T19:23:34.926Z,47.94
2017-02-18T19:38:47.267Z,48.99
2017-02-18T19:41:04.282Z,49.27
2017-02-18T19:45:04.525Z,50.39
2017-02-18T19:47:29.860Z,50.04
2017-02-18T19:49:36.759Z,49.27
2017-02-18T19:53:51.504Z,49.46
2017-02-18T19:56:04.710Z,49.65
2017-02-18T20:17:02.603Z,50.04
2017-02-18T20:21:18.662Z,50.32
2017-02-18T20:28:21.479Z,50.58
2017-02-18T20:30:51.964Z,50.23
2017-02-18T20:33:31.094Z,50.77
2017-02-18T20:37:33.752Z,51.43
2017-02-18T20:39:57.893Z,51.53
2017-02-18T20:42:21.099Z,51.06
2017-02-18T20:49:29.048Z,51.27
2017-02-18T20:51:53.651Z,50.96
2017-02-18T20:54:19.213Z,50.6
2017-02-18T20:56:46.027Z,50.99
2017-02-18T21:15:30.583Z,53.81
2017-02-18T21:19:34.285Z,54.19
2017-02-18T21:25:20.999Z,54.74
2017-02-18T21:28:01.794Z,54.64
2017-02-18T21:30:25.634Z,54.64
2017-02-18T21:32:56.680Z,54.64
2017-02-18T21:35:22.506Z,55.78
2017-02-18T21:37:27.209Z,55.97
2017-02-18T21:41:30.766Z,56.54
2017-02-18T21:43:27.394Z,56.83
2017-02-18T21:45:53.648Z,57.84
2017-02-18T21:48:18.158Z,56.54
2017-02-18T21:50:57.631Z,57.84
2017-02-18T21:53:22.930Z,57.94
2017-02-18T21:55:48.550Z,57.37
2017-02-18T21:58:28.288Z,57.3
2017-02-18T22:00:53.625Z,56.83
2017-02-18T22:04:54.954Z,56.07
2017-02-18T22:07:18.241Z,56.35
2017-02-18T22:09:42.905Z,57.3
2017-02-18T22:12:15.349Z,56.83
2017-02-18T22:14:39.548Z,58.03
2017-02-18T22:17:05.081Z,58.22
2017-02-18T22:21:14.761Z,57.94
2017-02-18T22:23:47.663Z,57.56
2017-02-18T22:26:06.092Z,58.41
2017-02-18T22:28:31.324Z,59.81
2017-02-18T22:30:55.768Z,59.74
2017-02-18T22:33:20.088Z,59.84
2017-02-18T22:35:43.513Z,59.74
2017-02-18T22:38:09.524Z,61.9
2017-02-18T22:40:34.434Z,62.66
2017-02-18T22:43:14.731Z,63.2
2017-02-18T22:45:26.233Z,61.8
2017-02-18T22:47:59.467Z,61.04
2017-02-18T22:50:22.838Z,61.52
2017-02-18T22:52:46.391Z,61.33
2017-02-18T22:55:17.334Z,62.37
2017-02-18T22:57:40.520Z,61.99
2017-02-18T23:00:05.595Z,62.66
2017-02-18T23:02:29.057Z,62.18
2017-02-18T23:05:00.248Z,61.99
2017-02-18T23:07:30.258Z,61.14
2017-02-18T23:09:55.674Z,61.71
2017-02-18T23:13:56.417Z,62.91
2017-02-18T23:16:19.523Z,63.1
2017-02-18T23:18:42.624Z,63.57
2017-02-18T23:21:13.372Z,62.82
2017-02-18T23:23:37.346Z,63.67
2017-02-18T23:26:00.405Z,63.39
2017-02-18T23:28:23.445Z,64.05
2017-02-18T23:30:46.539Z,65.85
2017-02-18T23:33:09.424Z,64.62
2017-02-18T23:35:33.521Z,64.9
2017-02-18T23:37:58.690Z,65.09
2017-02-18T23:40:22.832Z,63.57
2017-02-18T23:42:46.877Z,63.86
2017-02-18T23:45:10.980Z,64.43
2017-02-18T23:47:33.982Z,64.62
2017-02-18T23:49:57.971Z,65.37
2017-02-18T23:52:22.035Z,65.09
2017-02-18T23:54:45.392Z,64.52
2017-02-18T23:57:08.451Z,64.71
2017-02-18T23:59:31.500Z,64.52
